sensor_id;sensor_type;location;lat;lon;timestamp;pressure;altitude;pressure_sealevel;temperature;humidity
12775;BME280;6451;42.630;23.382;2023-04-03T00:01:54;93765.47;;;13.58;58.69
12775;BME280;6451;42.630;23.382;2023-04-03T00:04:21;93758.34;;;13.47;59.33
12775;BME280;6451;42.630;23.382;2023-04-03T00:06:48;93766.84;;;13.38;60.11
12775;BME280;6451;42.630;23.382;2023-04-03T00:09:15;93760.28;;;13.46;59.49
12775;BME280;6451;42.630;23.382;2023-04-03T00:11:42;93747.50;;;13.50;59.41
12775;BME280;6451;42.630;23.382;2023-04-03T00:14:09;93747.34;;;13.91;58.73
12775;BME280;6451;42.630;23.382;2023-04-03T00:16:37;93747.38;;;13.98;58.56
12775;BME280;6451;42.630;23.382;2023-04-03T00:19:04;93741.84;;;13.80;58.93
12775;BME280;6451;42.630;23.382;2023-04-03T00:21:31;93749.34;;;13.98;58.66
12775;BME280;6451;42.630;23.382;2023-04-03T00:23:58;93749.75;;;14.07;58.42
12775;BME280;6451;42.630;23.382;2023-04-03T00:26:25;93742.19;;;13.75;59.04
12775;BME280;6451;42.630;23.382;2023-04-03T00:28:52;93720.00;;;13.77;59.01
12775;BME280;6451;42.630;23.382;2023-04-03T00:31:19;93723.41;;;13.63;59.26
12775;BME280;6451;42.630;23.382;2023-04-03T00:33:47;93750.56;;;13.49;59.70
12775;BME280;6451;42.630;23.382;2023-04-03T00:36:15;93726.31;;;13.33;60.11
12775;BME280;6451;42.630;23.382;2023-04-03T00:38:42;93744.47;;;13.18;60.63
12775;BME280;6451;42.630;23.382;2023-04-03T00:41:09;93721.31;;;13.39;60.50
12775;BME280;6451;42.630;23.382;2023-04-03T00:43:37;93742.09;;;13.64;60.05
12775;BME280;6451;42.630;23.382;2023-04-03T00:46:05;93747.81;;;14.07;59.25
12775;BME280;6451;42.630;23.382;2023-04-03T00:48:35;93741.50;;;13.93;59.13
12775;BME280;6451;42.630;23.382;2023-04-03T00:51:07;93748.97;;;14.06;58.93
12775;BME280;6451;42.630;23.382;2023-04-03T00:53:39;93739.59;;;13.97;59.26
12775;BME280;6451;42.630;23.382;2023-04-03T00:56:09;93662.44;;;13.23;59.91
12775;BME280;6451;42.630;23.382;2023-04-03T00:58:40;93757.03;;;13.81;60.16
12775;BME280;6451;42.630;23.382;2023-04-03T01:01:12;93713.25;;;13.56;60.66
12775;BME280;6451;42.630;23.382;2023-04-03T01:03:40;93722.19;;;13.50;61.05
12775;BME280;6451;42.630;23.382;2023-04-03T01:06:09;93757.28;;;13.58;61.75
12775;BME280;6451;42.630;23.382;2023-04-03T01:08:36;93693.72;;;13.44;60.93
12775;BME280;6451;42.630;23.382;2023-04-03T01:11:03;93745.25;;;13.67;60.99
12775;BME280;6451;42.630;23.382;2023-04-03T01:13:32;93731.19;;;13.61;61.05
12775;BME280;6451;42.630;23.382;2023-04-03T01:16:06;93740.19;;;13.69;61.42
12775;BME280;6451;42.630;23.382;2023-04-03T01:18:34;93689.97;;;13.15;62.65
12775;BME280;6451;42.630;23.382;2023-04-03T01:21:27;93742.56;;;13.74;61.96
12775;BME280;6451;42.630;23.382;2023-04-03T01:24:21;93731.13;;;13.50;62.39
12775;BME280;6451;42.630;23.382;2023-04-03T01:26:50;93748.53;;;13.35;62.78
12775;BME280;6451;42.630;23.382;2023-04-03T01:29:17;93739.78;;;13.15;63.44
12775;BME280;6451;42.630;23.382;2023-04-03T01:31:49;93753.63;;;13.40;62.93
12775;BME280;6451;42.630;23.382;2023-04-03T01:34:16;93734.00;;;12.76;64.22
12775;BME280;6451;42.630;23.382;2023-04-03T01:36:43;93731.28;;;12.79;64.86
12775;BME280;6451;42.630;23.382;2023-04-03T01:39:10;93750.88;;;12.92;64.92
12775;BME280;6451;42.630;23.382;2023-04-03T01:41:37;93732.09;;;13.24;63.57
12775;BME280;6451;42.630;23.382;2023-04-03T01:44:04;93750.09;;;13.36;63.05
12775;BME280;6451;42.630;23.382;2023-04-03T01:46:31;93754.44;;;13.44;63.01
12775;BME280;6451;42.630;23.382;2023-04-03T01:49:01;93752.66;;;12.77;64.79
12775;BME280;6451;42.630;23.382;2023-04-03T01:51:28;93741.91;;;12.92;64.59
12775;BME280;6451;42.630;23.382;2023-04-03T01:53:56;93695.13;;;12.79;63.99
12775;BME280;6451;42.630;23.382;2023-04-03T01:56:23;93759.63;;;13.60;62.69
12775;BME280;6451;42.630;23.382;2023-04-03T01:58:50;93722.63;;;13.11;63.39
12775;BME280;6451;42.630;23.382;2023-04-03T02:01:17;93768.13;;;13.11;64.07
12775;BME280;6451;42.630;23.382;2023-04-03T02:03:45;93756.13;;;13.12;63.70
12775;BME280;6451;42.630;23.382;2023-04-03T02:06:13;93761.84;;;12.99;64.18
12775;BME280;6451;42.630;23.382;2023-04-03T02:08:40;93742.75;;;12.96;64.11
12775;BME280;6451;42.630;23.382;2023-04-03T02:11:08;93757.94;;;13.00;64.26
12775;BME280;6451;42.630;23.382;2023-04-03T02:13:35;93759.50;;;13.01;64.36
12775;BME280;6451;42.630;23.382;2023-04-03T02:16:07;93763.34;;;12.56;65.60
12775;BME280;6451;42.630;23.382;2023-04-03T02:18:35;93754.13;;;13.08;64.15
12775;BME280;6451;42.630;23.382;2023-04-03T02:21:02;93764.56;;;12.99;64.48
12775;BME280;6451;42.630;23.382;2023-04-03T02:23:31;93760.50;;;12.83;64.77
12775;BME280;6451;42.630;23.382;2023-04-03T02:26:05;93756.56;;;12.76;65.28
12775;BME280;6451;42.630;23.382;2023-04-03T02:28:33;93756.19;;;12.78;65.04
12775;BME280;6451;42.630;23.382;2023-04-03T02:31:00;93756.00;;;12.60;65.46
12775;BME280;6451;42.630;23.382;2023-04-03T02:33:28;93733.81;;;12.58;65.46
12775;BME280;6451;42.630;23.382;2023-04-03T02:35:55;93730.72;;;12.22;66.71
12775;BME280;6451;42.630;23.382;2023-04-03T02:38:22;93737.19;;;12.44;66.67
12775;BME280;6451;42.630;23.382;2023-04-03T02:40:51;93745.03;;;12.53;67.14
12775;BME280;6451;42.630;23.382;2023-04-03T02:43:18;93752.00;;;12.17;67.85
12775;BME280;6451;42.630;23.382;2023-04-03T02:45:45;93725.66;;;11.91;68.69
12775;BME280;6451;42.630;23.382;2023-04-03T02:48:12;93754.19;;;12.04;68.87
12775;BME280;6451;42.630;23.382;2023-04-03T02:50:40;93722.97;;;11.38;69.84
12775;BME280;6451;42.630;23.382;2023-04-03T02:53:07;93729.81;;;11.55;70.26
12775;BME280;6451;42.630;23.382;2023-04-03T02:55:33;93693.78;;;11.58;69.97
12775;BME280;6451;42.630;23.382;2023-04-03T02:58:02;93714.44;;;11.39;70.61
12775;BME280;6451;42.630;23.382;2023-04-03T03:00:29;93708.13;;;11.32;71.42
12775;BME280;6451;42.630;23.382;2023-04-03T03:02:56;93727.41;;;11.50;72.02
12775;BME280;6451;42.630;23.382;2023-04-03T03:05:23;93717.84;;;11.59;71.44
12775;BME280;6451;42.630;23.382;2023-04-03T03:07:50;93724.44;;;11.88;70.41
12775;BME280;6451;42.630;23.382;2023-04-03T03:10:17;93670.44;;;11.83;69.17
12775;BME280;6451;42.630;23.382;2023-04-03T03:12:44;93710.75;;;12.11;69.31
12775;BME280;6451;42.630;23.382;2023-04-03T03:15:13;93649.25;;;11.39;70.35
12775;BME280;6451;42.630;23.382;2023-04-03T03:17:41;93721.19;;;11.79;71.66
12775;BME280;6451;42.630;23.382;2023-04-03T03:20:10;93718.38;;;11.99;71.94
12775;BME280;6451;42.630;23.382;2023-04-03T03:22:37;93720.75;;;11.74;71.85
12775;BME280;6451;42.630;23.382;2023-04-03T03:25:04;93721.00;;;11.91;71.22
12775;BME280;6451;42.630;23.382;2023-04-03T03:27:31;93728.56;;;12.05;70.21
12775;BME280;6451;42.630;23.382;2023-04-03T03:29:58;93718.94;;;11.81;70.26
12775;BME280;6451;42.630;23.382;2023-04-03T03:32:26;93723.72;;;11.91;70.73
12775;BME280;6451;42.630;23.382;2023-04-03T03:34:53;93723.03;;;11.98;71.96
12775;BME280;6451;42.630;23.382;2023-04-03T03:37:20;93715.63;;;11.68;72.18
12775;BME280;6451;42.630;23.382;2023-04-03T03:39:47;93721.72;;;11.88;71.79
12775;BME280;6451;42.630;23.382;2023-04-03T03:42:14;93690.31;;;11.61;71.46
12775;BME280;6451;42.630;23.382;2023-04-03T03:44:41;93692.53;;;11.52;75.13
12775;BME280;6451;42.630;23.382;2023-04-03T03:47:08;93703.63;;;11.69;75.55
12775;BME280;6451;42.630;23.382;2023-04-03T03:49:37;93699.84;;;11.78;74.25
12775;BME280;6451;42.630;23.382;2023-04-03T03:52:04;93718.75;;;11.97;72.73
12775;BME280;6451;42.630;23.382;2023-04-03T03:54:31;93720.06;;;11.50;72.28
12775;BME280;6451;42.630;23.382;2023-04-03T03:56:58;93726.81;;;11.63;73.06
12775;BME280;6451;42.630;23.382;2023-04-03T03:59:25;93727.47;;;11.53;73.26
12775;BME280;6451;42.630;23.382;2023-04-03T04:01:52;93726.94;;;12.01;71.87
12775;BME280;6451;42.630;23.382;2023-04-03T04:04:19;93662.31;;;11.04;72.50
12775;BME280;6451;42.630;23.382;2023-04-03T04:06:47;93712.53;;;11.40;73.21
12775;BME280;6451;42.630;23.382;2023-04-03T04:09:14;93716.53;;;11.50;73.09
12775;BME280;6451;42.630;23.382;2023-04-03T04:11:41;93611.34;;;10.90;72.43
12775;BME280;6451;42.630;23.382;2023-04-03T04:14:08;93655.00;;;11.34;72.41
12775;BME280;6451;42.630;23.382;2023-04-03T04:16:35;93737.28;;;11.61;72.33
12775;BME280;6451;42.630;23.382;2023-04-03T04:19:03;93719.75;;;11.29;73.10
12775;BME280;6451;42.630;23.382;2023-04-03T04:21:30;93719.69;;;11.52;72.76
12775;BME280;6451;42.630;23.382;2023-04-03T04:23:58;93689.53;;;11.60;72.93
12775;BME280;6451;42.630;23.382;2023-04-03T04:26:25;93722.25;;;11.98;71.76
12775;BME280;6451;42.630;23.382;2023-04-03T04:28:52;93731.13;;;12.24;71.84
12775;BME280;6451;42.630;23.382;2023-04-03T04:31:19;93718.50;;;12.43;69.98
12775;BME280;6451;42.630;23.382;2023-04-03T04:33:46;93688.72;;;12.20;70.00
12775;BME280;6451;42.630;23.382;2023-04-03T04:36:13;93742.25;;;12.46;69.53
12775;BME280;6451;42.630;23.382;2023-04-03T04:38:40;93734.59;;;12.59;69.17
12775;BME280;6451;42.630;23.382;2023-04-03T04:41:08;93719.72;;;12.49;68.84
12775;BME280;6451;42.630;23.382;2023-04-03T04:43:35;93701.69;;;12.34;69.22
12775;BME280;6451;42.630;23.382;2023-04-03T04:46:03;93733.94;;;12.72;69.26
12775;BME280;6451;42.630;23.382;2023-04-03T04:48:31;93745.03;;;12.90;68.96
12775;BME280;6451;42.630;23.382;2023-04-03T04:50:57;93757.47;;;12.91;72.16
12775;BME280;6451;42.630;23.382;2023-04-03T04:53:24;93734.78;;;12.80;74.14
12775;BME280;6451;42.630;23.382;2023-04-03T04:55:51;93762.88;;;12.88;75.33
12775;BME280;6451;42.630;23.382;2023-04-03T04:58:20;93755.16;;;12.93;72.89
12775;BME280;6451;42.630;23.382;2023-04-03T05:00:46;93764.81;;;12.87;72.01
12775;BME280;6451;42.630;23.382;2023-04-03T05:03:13;93768.78;;;12.56;70.40
12775;BME280;6451;42.630;23.382;2023-04-03T05:05:40;93751.66;;;12.56;70.47
12775;BME280;6451;42.630;23.382;2023-04-03T05:08:09;93771.41;;;12.83;69.43
12775;BME280;6451;42.630;23.382;2023-04-03T05:10:37;93786.66;;;12.94;68.43
12775;BME280;6451;42.630;23.382;2023-04-03T05:13:06;93785.97;;;13.01;69.33
12775;BME280;6451;42.630;23.382;2023-04-03T05:15:34;93793.03;;;13.09;70.14
12775;BME280;6451;42.630;23.382;2023-04-03T05:18:03;93785.03;;;13.23;70.27
12775;BME280;6451;42.630;23.382;2023-04-03T05:20:30;93785.34;;;13.62;68.63
12775;BME280;6451;42.630;23.382;2023-04-03T05:22:58;93776.69;;;13.50;68.96
12775;BME280;6451;42.630;23.382;2023-04-03T05:25:26;93764.91;;;13.35;69.07
12775;BME280;6451;42.630;23.382;2023-04-03T05:27:53;93716.91;;;13.23;68.89
12775;BME280;6451;42.630;23.382;2023-04-03T05:30:21;93754.13;;;13.56;67.85
12775;BME280;6451;42.630;23.382;2023-04-03T05:32:49;93787.91;;;14.00;67.78
12775;BME280;6451;42.630;23.382;2023-04-03T05:35:17;93764.47;;;13.88;67.69
12775;BME280;6451;42.630;23.382;2023-04-03T05:37:43;93776.03;;;14.36;66.70
12775;BME280;6451;42.630;23.382;2023-04-03T05:40:11;93770.91;;;14.31;67.49
12775;BME280;6451;42.630;23.382;2023-04-03T05:42:38;93775.50;;;14.09;68.89
12775;BME280;6451;42.630;23.382;2023-04-03T05:45:06;93775.13;;;14.14;67.93
12775;BME280;6451;42.630;23.382;2023-04-03T05:47:33;93770.81;;;14.10;68.64
12775;BME280;6451;42.630;23.382;2023-04-03T05:50:01;93766.34;;;14.50;67.18
12775;BME280;6451;42.630;23.382;2023-04-03T05:52:34;93773.31;;;14.43;67.61
12775;BME280;6451;42.630;23.382;2023-04-03T05:55:02;93745.94;;;14.26;67.61
12775;BME280;6451;42.630;23.382;2023-04-03T05:57:29;93764.78;;;14.52;68.27
12775;BME280;6451;42.630;23.382;2023-04-03T05:59:56;93766.09;;;14.00;69.66
12775;BME280;6451;42.630;23.382;2023-04-03T06:02:24;93761.34;;;14.73;67.33
12775;BME280;6451;42.630;23.382;2023-04-03T06:04:51;93757.59;;;14.15;67.19
12775;BME280;6451;42.630;23.382;2023-04-03T06:07:22;93757.66;;;14.30;66.97
12775;BME280;6451;42.630;23.382;2023-04-03T06:09:50;93755.53;;;14.92;64.95
12775;BME280;6451;42.630;23.382;2023-04-03T06:12:18;93733.41;;;14.10;66.12
12775;BME280;6451;42.630;23.382;2023-04-03T06:14:45;93756.31;;;14.89;65.63
12775;BME280;6451;42.630;23.382;2023-04-03T06:17:12;93741.91;;;15.35;64.39
12775;BME280;6451;42.630;23.382;2023-04-03T06:19:40;93731.34;;;15.09;64.24
12775;BME280;6451;42.630;23.382;2023-04-03T06:22:07;93755.16;;;15.01;64.60
12775;BME280;6451;42.630;23.382;2023-04-03T06:24:35;93755.19;;;15.69;63.38
12775;BME280;6451;42.630;23.382;2023-04-03T06:27:02;93748.16;;;15.11;63.79
12775;BME280;6451;42.630;23.382;2023-04-03T06:29:30;93754.38;;;15.08;64.93
12775;BME280;6451;42.630;23.382;2023-04-03T06:31:57;93772.75;;;15.39;63.47
12775;BME280;6451;42.630;23.382;2023-04-03T06:34:24;93774.28;;;15.01;63.64
12775;BME280;6451;42.630;23.382;2023-04-03T06:36:51;93747.00;;;15.44;62.20
12775;BME280;6451;42.630;23.382;2023-04-03T06:39:24;93772.75;;;15.32;62.33
12775;BME280;6451;42.630;23.382;2023-04-03T06:41:52;93774.72;;;15.28;61.32
12775;BME280;6451;42.630;23.382;2023-04-03T06:44:19;93768.84;;;15.15;63.39
12775;BME280;6451;42.630;23.382;2023-04-03T06:46:46;93758.66;;;14.94;63.39
12775;BME280;6451;42.630;23.382;2023-04-03T06:49:13;93748.47;;;14.77;64.69
12775;BME280;6451;42.630;23.382;2023-04-03T06:51:41;93757.53;;;15.31;62.81
12775;BME280;6451;42.630;23.382;2023-04-03T06:54:07;93757.91;;;15.22;62.76
12775;BME280;6451;42.630;23.382;2023-04-03T06:56:35;93763.78;;;15.56;61.26
12775;BME280;6451;42.630;23.382;2023-04-03T06:59:04;93766.09;;;15.87;60.78
12775;BME280;6451;42.630;23.382;2023-04-03T07:01:31;93771.47;;;16.29;60.34
12775;BME280;6451;42.630;23.382;2023-04-03T07:03:58;93764.00;;;16.44;59.42
12775;BME280;6451;42.630;23.382;2023-04-03T07:06:25;93747.66;;;16.16;60.08
12775;BME280;6451;42.630;23.382;2023-04-03T07:08:54;93738.28;;;16.20;59.92
12775;BME280;6451;42.630;23.382;2023-04-03T07:11:21;93762.28;;;16.82;59.22
12775;BME280;6451;42.630;23.382;2023-04-03T07:13:48;93746.31;;;17.29;57.90
12775;BME280;6451;42.630;23.382;2023-04-03T07:16:16;93733.28;;;16.85;58.07
12775;BME280;6451;42.630;23.382;2023-04-03T07:18:43;93748.91;;;16.91;57.17
12775;BME280;6451;42.630;23.382;2023-04-03T07:21:11;93729.38;;;16.86;57.04
12775;BME280;6451;42.630;23.382;2023-04-03T07:23:38;93745.72;;;17.56;56.26
12775;BME280;6451;42.630;23.382;2023-04-03T07:26:07;93731.78;;;17.32;56.53
12775;BME280;6451;42.630;23.382;2023-04-03T07:28:34;93726.22;;;16.91;57.45
12775;BME280;6451;42.630;23.382;2023-04-03T07:31:04;93744.66;;;16.83;58.27
12775;BME280;6451;42.630;23.382;2023-04-03T07:33:35;93729.50;;;16.64;59.27
12775;BME280;6451;42.630;23.382;2023-04-03T07:36:03;93729.31;;;16.02;60.39
12775;BME280;6451;42.630;23.382;2023-04-03T07:38:31;93743.75;;;17.04;59.21
12775;BME280;6451;42.630;23.382;2023-04-03T07:40:58;93715.28;;;17.39;57.52
12775;BME280;6451;42.630;23.382;2023-04-03T07:43:25;93730.84;;;17.05;58.25
12775;BME280;6451;42.630;23.382;2023-04-03T07:45:52;93723.19;;;16.67;58.81
12775;BME280;6451;42.630;23.382;2023-04-03T07:48:20;93740.00;;;17.36;57.53
12775;BME280;6451;42.630;23.382;2023-04-03T07:50:49;93723.19;;;16.71;58.99
12775;BME280;6451;42.630;23.382;2023-04-03T07:53:17;93516.69;;;14.93;58.78
12775;BME280;6451;42.630;23.382;2023-04-03T07:55:46;93728.66;;;16.75;59.35
12775;BME280;6451;42.630;23.382;2023-04-03T07:58:16;93676.72;;;16.53;58.82
12775;BME280;6451;42.630;23.382;2023-04-03T08:00:44;93730.50;;;16.11;60.89
12775;BME280;6451;42.630;23.382;2023-04-03T08:03:12;93729.22;;;16.41;60.84
12775;BME280;6451;42.630;23.382;2023-04-03T08:05:42;93728.97;;;16.94;59.63
12775;BME280;6451;42.630;23.382;2023-04-03T08:08:11;93729.19;;;17.18;59.49
12775;BME280;6451;42.630;23.382;2023-04-03T08:10:39;93726.25;;;17.43;58.71
12775;BME280;6451;42.630;23.382;2023-04-03T08:13:07;93718.03;;;17.39;57.59
12775;BME280;6451;42.630;23.382;2023-04-03T08:15:34;93669.13;;;16.79;58.90
12775;BME280;6451;42.630;23.382;2023-04-03T08:18:02;93721.50;;;17.47;58.01
12775;BME280;6451;42.630;23.382;2023-04-03T08:20:29;93656.53;;;16.92;57.66
12775;BME280;6451;42.630;23.382;2023-04-03T08:22:56;93718.13;;;17.29;59.47
12775;BME280;6451;42.630;23.382;2023-04-03T08:25:24;93717.69;;;17.34;59.53
12775;BME280;6451;42.630;23.382;2023-04-03T08:27:51;93714.25;;;17.22;61.24
12775;BME280;6451;42.630;23.382;2023-04-03T08:30:18;93711.69;;;17.49;60.65
12775;BME280;6451;42.630;23.382;2023-04-03T08:32:45;93696.72;;;17.58;60.35
12775;BME280;6451;42.630;23.382;2023-04-03T08:35:12;93636.34;;;17.16;60.07
12775;BME280;6451;42.630;23.382;2023-04-03T08:37:39;93708.09;;;17.08;61.07
12775;BME280;6451;42.630;23.382;2023-04-03T08:40:10;93697.56;;;17.96;59.52
12775;BME280;6451;42.630;23.382;2023-04-03T08:42:48;93696.34;;;17.97;59.02
12775;BME280;6451;42.630;23.382;2023-04-03T08:45:22;93704.56;;;18.34;58.13
12775;BME280;6451;42.630;23.382;2023-04-03T08:47:56;93686.84;;;18.05;58.64
12775;BME280;6451;42.630;23.382;2023-04-03T08:50:30;93689.84;;;18.18;58.29
12775;BME280;6451;42.630;23.382;2023-04-03T08:53:01;93686.25;;;19.12;56.21
12775;BME280;6451;42.630;23.382;2023-04-03T08:55:33;93670.59;;;19.09;55.37
12775;BME280;6451;42.630;23.382;2023-04-03T08:58:04;93661.34;;;18.96;55.58
12775;BME280;6451;42.630;23.382;2023-04-03T09:00:37;93561.72;;;18.61;54.36
12775;BME280;6451;42.630;23.382;2023-04-03T09:03:12;93662.69;;;18.84;54.97
12775;BME280;6451;42.630;23.382;2023-04-03T09:05:43;93546.00;;;18.66;54.04
12775;BME280;6451;42.630;23.382;2023-04-03T09:08:18;93668.75;;;18.99;54.79
12775;BME280;6451;42.630;23.382;2023-04-03T09:10:48;93631.22;;;18.31;55.57
12775;BME280;6451;42.630;23.382;2023-04-03T09:13:24;93654.25;;;18.41;55.19
12775;BME280;6451;42.630;23.382;2023-04-03T09:15:53;93653.25;;;19.12;54.55
12775;BME280;6451;42.630;23.382;2023-04-03T09:18:24;93654.22;;;19.49;53.29
12775;BME280;6451;42.630;23.382;2023-04-03T09:20:58;93635.72;;;19.73;52.98
12775;BME280;6451;42.630;23.382;2023-04-03T09:23:30;93649.50;;;19.93;52.21
12775;BME280;6451;42.630;23.382;2023-04-03T09:26:03;93635.56;;;19.60;52.01
12775;BME280;6451;42.630;23.382;2023-04-03T09:28:36;93624.91;;;19.82;50.42
12775;BME280;6451;42.630;23.382;2023-04-03T09:31:15;93601.00;;;19.99;49.97
12775;BME280;6451;42.630;23.382;2023-04-03T09:33:43;93594.91;;;20.47;49.39
12775;BME280;6451;42.630;23.382;2023-04-03T09:36:10;93642.44;;;20.32;49.52
12775;BME280;6451;42.630;23.382;2023-04-03T09:38:37;93644.97;;;20.22;49.16
12775;BME280;6451;42.630;23.382;2023-04-03T09:41:06;93642.31;;;20.19;49.39
12775;BME280;6451;42.630;23.382;2023-04-03T09:43:37;93637.78;;;20.09;48.72
12775;BME280;6451;42.630;23.382;2023-04-03T09:46:31;93632.88;;;19.77;49.26
12775;BME280;6451;42.630;23.382;2023-04-03T09:48:59;93574.66;;;19.78;48.72
12775;BME280;6451;42.630;23.382;2023-04-03T09:51:27;93625.84;;;19.95;48.45
12775;BME280;6451;42.630;23.382;2023-04-03T09:53:55;93630.34;;;19.42;48.02
12775;BME280;6451;42.630;23.382;2023-04-03T09:56:24;93604.69;;;19.26;48.38
12775;BME280;6451;42.630;23.382;2023-04-03T09:59:13;93613.47;;;19.84;48.87
12775;BME280;6451;42.630;23.382;2023-04-03T10:01:43;93620.53;;;19.41;48.65
12775;BME280;6451;42.630;23.382;2023-04-03T10:04:22;93626.59;;;19.76;48.44
12775;BME280;6451;42.630;23.382;2023-04-03T10:06:51;93628.41;;;19.39;47.82
12775;BME280;6451;42.630;23.382;2023-04-03T10:09:21;93621.00;;;18.89;47.59
12775;BME280;6451;42.630;23.382;2023-04-03T10:12:08;93635.28;;;18.81;48.67
12775;BME280;6451;42.630;23.382;2023-04-03T10:14:39;93627.50;;;18.99;48.45
12775;BME280;6451;42.630;23.382;2023-04-03T10:17:16;93628.88;;;18.87;48.48
12775;BME280;6451;42.630;23.382;2023-04-03T10:19:48;93618.91;;;18.97;48.54
12775;BME280;6451;42.630;23.382;2023-04-03T10:22:20;93601.34;;;18.64;48.57
12775;BME280;6451;42.630;23.382;2023-04-03T10:25:00;93618.25;;;18.89;48.68
12775;BME280;6451;42.630;23.382;2023-04-03T10:27:53;93606.47;;;19.12;48.33
12775;BME280;6451;42.630;23.382;2023-04-03T10:30:34;93479.66;;;18.64;47.51
12775;BME280;6451;42.630;23.382;2023-04-03T10:36:06;93570.63;;;18.96;47.98
12775;BME280;6451;42.630;23.382;2023-04-03T10:38:42;93603.66;;;18.93;49.02
12775;BME280;6451;42.630;23.382;2023-04-03T10:41:14;93563.44;;;18.52;49.12
12775;BME280;6451;42.630;23.382;2023-04-03T10:43:48;93590.53;;;19.27;48.49
12775;BME280;6451;42.630;23.382;2023-04-03T10:46:23;93593.16;;;18.87;49.13
12775;BME280;6451;42.630;23.382;2023-04-03T10:49:04;93585.47;;;18.75;49.32
12775;BME280;6451;42.630;23.382;2023-04-03T10:51:38;93595.97;;;18.53;49.65
12775;BME280;6451;42.630;23.382;2023-04-03T10:54:11;93575.66;;;18.20;50.04
12775;BME280;6451;42.630;23.382;2023-04-03T10:56:45;93595.41;;;18.12;51.80
12775;BME280;6451;42.630;23.382;2023-04-03T10:59:19;93591.38;;;18.16;53.02
12775;BME280;6451;42.630;23.382;2023-04-03T11:01:51;93591.75;;;18.49;52.84
12775;BME280;6451;42.630;23.382;2023-04-03T11:04:21;93591.22;;;18.30;54.53
12775;BME280;6451;42.630;23.382;2023-04-03T11:06:54;93605.84;;;18.51;54.58
12775;BME280;6451;42.630;23.382;2023-04-03T11:09:28;93585.81;;;18.23;55.40
12775;BME280;6451;42.630;23.382;2023-04-03T11:11:59;93580.03;;;18.18;56.84
12775;BME280;6451;42.630;23.382;2023-04-03T11:14:31;93562.47;;;17.77;58.88
12775;BME280;6451;42.630;23.382;2023-04-03T11:17:08;93605.16;;;17.44;62.29
12775;BME280;6451;42.630;23.382;2023-04-03T11:19:42;93590.31;;;17.38;64.34
12775;BME280;6451;42.630;23.382;2023-04-03T11:22:20;93584.03;;;17.41;66.44
12775;BME280;6451;42.630;23.382;2023-04-03T11:24:56;93601.91;;;17.53;69.10
12775;BME280;6451;42.630;23.382;2023-04-03T11:27:27;93580.75;;;17.54;71.35
12775;BME280;6451;42.630;23.382;2023-04-03T11:29:59;93585.31;;;17.33;74.54
12775;BME280;6451;42.630;23.382;2023-04-03T11:32:56;93601.50;;;17.55;75.82
12775;BME280;6451;42.630;23.382;2023-04-03T11:35:27;93592.91;;;17.56;77.85
12775;BME280;6451;42.630;23.382;2023-04-03T11:37:56;93597.56;;;17.59;77.93
12775;BME280;6451;42.630;23.382;2023-04-03T11:40:26;93599.03;;;17.30;79.59
12775;BME280;6451;42.630;23.382;2023-04-03T11:43:04;93567.78;;;17.20;80.49
12775;BME280;6451;42.630;23.382;2023-04-03T11:45:35;93597.72;;;17.04;83.45
12775;BME280;6451;42.630;23.382;2023-04-03T11:48:06;93604.75;;;17.05;86.77
12775;BME280;6451;42.630;23.382;2023-04-03T11:50:44;93604.09;;;16.90;87.35
12775;BME280;6451;42.630;23.382;2023-04-03T11:53:31;93605.88;;;17.11;86.73
12775;BME280;6451;42.630;23.382;2023-04-03T11:56:03;93608.28;;;16.50;92.66
12775;BME280;6451;42.630;23.382;2023-04-03T11:58:31;93603.91;;;16.59;93.92
12775;BME280;6451;42.630;23.382;2023-04-03T12:01:04;93564.34;;;16.01;97.92
12775;BME280;6451;42.630;23.382;2023-04-03T12:06:53;93611.69;;;15.98;100.00
12775;BME280;6451;42.630;23.382;2023-04-03T12:09:33;93609.09;;;16.39;100.00
12775;BME280;6451;42.630;23.382;2023-04-03T12:12:30;93616.91;;;16.45;100.00
12775;BME280;6451;42.630;23.382;2023-04-03T12:15:19;93612.72;;;16.26;100.00
12775;BME280;6451;42.630;23.382;2023-04-03T12:17:47;93609.22;;;16.22;100.00
12775;BME280;6451;42.630;23.382;2023-04-03T12:20:51;93600.47;;;16.45;100.00
12775;BME280;6451;42.630;23.382;2023-04-03T12:23:32;93597.78;;;16.37;100.00
12775;BME280;6451;42.630;23.382;2023-04-03T12:26:04;93581.75;;;16.36;100.00
12775;BME280;6451;42.630;23.382;2023-04-03T12:28:39;93596.81;;;16.65;100.00
12775;BME280;6451;42.630;23.382;2023-04-03T12:31:10;93598.31;;;16.77;100.00
12775;BME280;6451;42.630;23.382;2023-04-03T12:34:04;93592.63;;;16.47;100.00
12775;BME280;6451;42.630;23.382;2023-04-03T12:36:42;93541.25;;;16.09;100.00
12775;BME280;6451;42.630;23.382;2023-04-03T12:39:36;93570.78;;;16.91;100.00
12775;BME280;6451;42.630;23.382;2023-04-03T12:42:23;93559.66;;;16.61;100.00
12775;BME280;6451;42.630;23.382;2023-04-03T12:45:00;93549.94;;;16.56;100.00
12775;BME280;6451;42.630;23.382;2023-04-03T12:47:33;93561.75;;;16.98;100.00
12775;BME280;6451;42.630;23.382;2023-04-03T12:50:17;93555.59;;;16.87;100.00
12775;BME280;6451;42.630;23.382;2023-04-03T12:52:49;93556.59;;;15.93;100.00
12775;BME280;6451;42.630;23.382;2023-04-03T12:55:20;93554.28;;;15.88;100.00
12775;BME280;6451;42.630;23.382;2023-04-03T12:57:48;93551.34;;;16.23;100.00
12775;BME280;6451;42.630;23.382;2023-04-03T13:00:28;93541.34;;;15.92;100.00
12775;BME280;6451;42.630;23.382;2023-04-03T13:02:55;93535.63;;;16.34;100.00
12775;BME280;6451;42.630;23.382;2023-04-03T13:05:23;93551.59;;;16.43;100.00
12775;BME280;6451;42.630;23.382;2023-04-03T13:07:52;93523.50;;;16.35;100.00
12775;BME280;6451;42.630;23.382;2023-04-03T13:10:23;93538.91;;;16.08;100.00
12775;BME280;6451;42.630;23.382;2023-04-03T13:12:52;93566.38;;;15.90;100.00
12775;BME280;6451;42.630;23.382;2023-04-03T13:15:22;93551.50;;;15.98;100.00
12775;BME280;6451;42.630;23.382;2023-04-03T13:17:51;93561.69;;;15.87;100.00
12775;BME280;6451;42.630;23.382;2023-04-03T13:20:21;93557.91;;;16.33;100.00
12775;BME280;6451;42.630;23.382;2023-04-03T13:23:00;93543.91;;;16.24;100.00